createdAt,value
2017-07-17T00:01:52.862Z,85.57
2017-07-17T00:04:20.291Z,86.08
2017-07-17T00:06:48.027Z,86.25
2017-07-17T00:09:15.466Z,86.43
2017-07-17T00:11:42.879Z,85.95
2017-07-17T00:14:10.300Z,85.84
2017-07-17T00:16:37.735Z,85.71
2017-07-17T00:19:05.153Z,85.71
2017-07-17T00:21:32.574Z,85.74
2017-07-17T00:24:00.002Z,85.72
2017-07-17T00:26:27.488Z,85.76
2017-07-17T00:28:54.863Z,85.79
2017-07-17T00:31:22.291Z,85.85
2017-07-17T00:33:49.723Z,85.98
2017-07-17T00:36:17.154Z,86.09
2017-07-17T00:38:44.583Z,86.08
2017-07-17T00:41:12.019Z,86.08
2017-07-17T00:43:39.469Z,86.04
2017-07-17T00:46:06.883Z,85.96
2017-07-17T00:48:34.324Z,85.81
2017-07-17T00:51:01.755Z,85.82
2017-07-17T00:53:29.174Z,85.81
2017-07-17T00:55:56.616Z,85.77
2017-07-17T00:58:24.030Z,85.79
2017-07-17T01:00:51.459Z,85.58
2017-07-17T01:03:18.914Z,85.52
2017-07-17T01:05:46.343Z,85.62
2017-07-17T01:08:13.780Z,85.49
2017-07-17T01:10:41.211Z,85.48
2017-07-17T01:13:08.627Z,85.82
2017-07-17T01:15:36.111Z,85.74
2017-07-17T01:18:03.525Z,85.79
2017-07-17T01:20:30.959Z,85.71
2017-07-17T01:22:58.378Z,85.62
2017-07-17T01:25:25.822Z,85.50
2017-07-17T01:27:53.243Z,85.38
2017-07-17T01:30:20.669Z,85.38
2017-07-17T01:32:48.101Z,85.14
2017-07-17T01:35:15.510Z,85.03
2017-07-17T01:37:42.952Z,85.06
2017-07-17T01:40:10.379Z,84.98
2017-07-17T01:42:37.830Z,85.14
2017-07-17T01:45:05.262Z,85.23
2017-07-17T01:47:32.673Z,85.16
2017-07-17T01:50:00.127Z,85.12
2017-07-17T01:52:27.539Z,84.94
2017-07-17T01:54:54.969Z,85.09
2017-07-17T01:57:22.431Z,85.09
2017-07-17T01:59:49.874Z,84.95
2017-07-17T02:02:17.307Z,84.59
2017-07-17T02:04:44.723Z,84.60
2017-07-17T02:07:12.193Z,84.65
2017-07-17T02:09:39.873Z,84.68
2017-07-17T02:12:07.315Z,84.48
2017-07-17T02:14:34.736Z,84.47
2017-07-17T02:17:02.175Z,84.35
2017-07-17T02:19:29.610Z,83.92
2017-07-17T02:21:57.022Z,83.53
2017-07-17T02:24:24.454Z,83.46
2017-07-17T02:26:51.879Z,83.51
2017-07-17T02:29:19.306Z,83.33
2017-07-17T02:31:46.767Z,83.07
2017-07-17T02:34:14.223Z,83.27
2017-07-17T02:36:41.646Z,83.19
2017-07-17T02:39:09.070Z,83.11
2017-07-17T02:41:36.503Z,83.26
2017-07-17T02:44:03.930Z,83.11
2017-07-17T02:46:31.355Z,83.16
2017-07-17T02:48:58.782Z,83.47
2017-07-17T02:51:26.227Z,83.38
2017-07-17T02:53:53.646Z,82.43
2017-07-17T02:56:21.066Z,82.73
2017-07-17T02:58:48.493Z,83.14
2017-07-17T03:01:15.906Z,83.52
2017-07-17T03:03:43.326Z,83.75
2017-07-17T03:06:10.741Z,83.86
2017-07-17T03:08:38.194Z,83.74
2017-07-17T03:11:05.627Z,83.74
2017-07-17T03:13:33.094Z,83.84
2017-07-17T03:16:00.531Z,84.02
2017-07-17T03:18:27.958Z,83.37
2017-07-17T03:20:55.386Z,83.39
2017-07-17T03:23:22.803Z,83.59
2017-07-17T03:25:50.283Z,83.85
2017-07-17T03:28:17.722Z,83.92
2017-07-17T03:30:45.139Z,83.97
2017-07-17T03:33:12.878Z,84.10
2017-07-17T03:35:40.307Z,84.03
2017-07-17T03:38:07.737Z,83.68
2017-07-17T03:40:35.482Z,82.94
2017-07-17T03:43:02.941Z,83.19
2017-07-17T03:45:30.377Z,83.30
2017-07-17T03:47:57.946Z,83.40
2017-07-17T03:50:25.370Z,83.13
2017-07-17T03:52:52.801Z,83.42
2017-07-17T03:55:20.509Z,83.66
2017-07-17T03:57:47.950Z,83.77
2017-07-17T04:00:15.374Z,83.88
2017-07-17T04:02:43.011Z,83.84
2017-07-17T04:05:10.426Z,83.81
2017-07-17T04:07:37.842Z,83.88
2017-07-17T04:10:05.471Z,83.83
2017-07-17T04:12:32.890Z,83.63
2017-07-17T04:15:00.296Z,83.55
2017-07-17T04:17:27.871Z,83.43
2017-07-17T04:19:55.278Z,83.44
2017-07-17T04:22:22.998Z,82.94
2017-07-17T04:24:50.742Z,82.92
2017-07-17T04:27:18.206Z,82.61
2017-07-17T04:29:45.627Z,82.38
2017-07-17T04:32:13.115Z,82.55
2017-07-17T04:34:40.631Z,81.77
2017-07-17T04:37:08.028Z,81.69
2017-07-17T04:39:35.919Z,81.25
2017-07-17T04:42:03.345Z,81.66
2017-07-17T04:44:30.777Z,82.21
2017-07-17T04:46:58.354Z,81.79
2017-07-17T04:49:25.781Z,81.21
2017-07-17T04:51:53.206Z,81.31
2017-07-17T04:54:21.011Z,81.54
2017-07-17T04:56:48.445Z,81.75
2017-07-17T04:59:15.858Z,80.92
2017-07-17T05:01:44.591Z,81.32
2017-07-17T05:04:12.006Z,81.60
2017-07-17T05:06:39.459Z,81.65
2017-07-17T05:09:07.045Z,80.92
2017-07-17T05:11:34.469Z,80.94
2017-07-17T05:14:01.886Z,81.41
2017-07-17T05:16:29.744Z,81.50
2017-07-17T05:18:57.190Z,81.72
2017-07-17T05:21:24.594Z,82.06
2017-07-17T05:23:52.043Z,81.88
2017-07-17T05:26:19.485Z,81.34
2017-07-17T05:28:46.936Z,81.22
2017-07-17T05:31:14.439Z,80.60
2017-07-17T05:33:41.863Z,80.51
2017-07-17T05:36:09.283Z,80.57
2017-07-17T05:38:37.068Z,80.40
2017-07-17T05:41:04.508Z,80.23
2017-07-17T05:43:31.931Z,80.28
2017-07-17T05:45:59.403Z,80.25
2017-07-17T05:48:26.837Z,80.15
2017-07-17T05:50:54.243Z,80.17
2017-07-17T05:53:21.801Z,80.22
2017-07-17T05:55:49.232Z,79.98
2017-07-17T05:58:16.647Z,80.02
2017-07-17T06:00:44.494Z,80.15
2017-07-17T06:03:11.924Z,80.49
2017-07-17T06:05:39.347Z,80.85
2017-07-17T06:08:07.332Z,81.46
2017-07-17T06:10:34.773Z,82.18
2017-07-17T06:13:02.205Z,82.36
2017-07-17T06:15:29.709Z,82.33
2017-07-17T06:17:57.150Z,82.55
2017-07-17T06:20:24.594Z,82.77
2017-07-17T06:22:52.217Z,83.02
2017-07-17T06:25:19.647Z,83.32
2017-07-17T06:27:47.071Z,83.85
2017-07-17T06:30:14.543Z,84.24
2017-07-17T06:32:41.966Z,83.75
2017-07-17T06:35:09.387Z,84.08
2017-07-17T06:37:36.968Z,84.64
2017-07-17T06:40:04.386Z,85.15
2017-07-17T06:42:31.828Z,86.09
2017-07-17T06:44:59.371Z,86.36
2017-07-17T06:47:26.786Z,86.76
2017-07-17T06:49:54.233Z,87.22
2017-07-17T06:52:21.710Z,88.43
2017-07-17T06:54:49.134Z,88.92
2017-07-17T06:57:16.550Z,88.74
2017-07-17T06:59:44.299Z,88.67
2017-07-17T07:02:11.767Z,88.62
2017-07-17T07:04:39.186Z,88.31
2017-07-17T07:07:06.709Z,88.48
2017-07-17T07:09:34.140Z,88.01
2017-07-17T07:12:01.565Z,88.46
2017-07-17T07:14:29.096Z,88.65
2017-07-17T07:16:56.514Z,88.36
2017-07-17T07:19:23.971Z,88.72
2017-07-17T07:21:51.820Z,88.99
2017-07-17T07:24:19.239Z,88.86
2017-07-17T07:26:46.665Z,89.04
2017-07-17T07:29:14.295Z,89.18
2017-07-17T07:31:41.739Z,89.48
2017-07-17T07:34:09.170Z,89.56
2017-07-17T07:36:36.903Z,89.11
2017-07-17T07:39:04.315Z,88.92
2017-07-17T07:41:31.730Z,89.03
2017-07-17T07:43:59.311Z,89.32
2017-07-17T07:46:26.728Z,89.70
2017-07-17T07:48:54.142Z,89.91
2017-07-17T07:51:21.896Z,89.43
2017-07-17T07:53:49.300Z,89.94
2017-07-17T07:56:16.713Z,88.86
2017-07-17T07:58:44.507Z,89.07
2017-07-17T08:01:11.934Z,88.13
2017-07-17T08:03:39.342Z,88.45
2017-07-17T08:06:06.809Z,88.80
2017-07-17T08:08:34.226Z,87.88
2017-07-17T08:11:01.641Z,87.66
2017-07-17T08:13:29.251Z,87.24
2017-07-17T08:15:56.689Z,87.88
2017-07-17T08:18:24.106Z,88.16
2017-07-17T08:20:51.674Z,88.74
2017-07-17T08:23:19.109Z,88.50
2017-07-17T08:25:46.505Z,88.55
2017-07-17T08:28:14.187Z,88.42
2017-07-17T08:30:41.615Z,89.36
2017-07-17T08:33:09.045Z,90.38
2017-07-17T08:35:36.977Z,90.79
2017-07-17T08:38:04.400Z,91.19
2017-07-17T08:40:31.819Z,90.42
2017-07-17T08:42:59.656Z,91.42
2017-07-17T08:45:27.075Z,91.23
2017-07-17T08:47:54.495Z,91.05
2017-07-17T08:50:22.132Z,90.73
2017-07-17T08:52:49.545Z,91.42
2017-07-17T08:55:16.950Z,91.94
2017-07-17T08:57:44.697Z,91.43
2017-07-17T09:00:12.102Z,92.00
2017-07-17T09:02:39.527Z,91.89
2017-07-17T09:05:07.000Z,91.52
2017-07-17T09:07:34.409Z,91.49
2017-07-17T09:10:01.826Z,90.81
2017-07-17T09:12:29.263Z,91.08
2017-07-17T09:14:56.707Z,89.96
2017-07-17T09:17:24.151Z,89.79
2017-07-17T09:19:51.595Z,89.90
2017-07-17T09:22:19.016Z,89.89
2017-07-17T09:24:46.431Z,90.70
2017-07-17T09:27:14.180Z,90.91
2017-07-17T09:29:41.637Z,91.11
2017-07-17T09:32:09.024Z,89.90
2017-07-17T09:34:36.631Z,89.48
2017-07-17T09:37:04.046Z,89.37
2017-07-17T09:39:31.463Z,89.37
2017-07-17T09:41:58.902Z,89.57
2017-07-17T09:44:26.335Z,88.79
2017-07-17T09:46:53.766Z,88.64
2017-07-17T09:49:21.251Z,87.77
2017-07-17T09:51:48.691Z,87.04
2017-07-17T09:54:16.128Z,86.12
2017-07-17T09:56:43.593Z,86.44
2017-07-17T09:59:11.051Z,87.24
2017-07-17T10:01:38.475Z,87.33
2017-07-17T10:04:06.278Z,86.83
2017-07-17T10:06:33.729Z,87.28
2017-07-17T10:09:01.164Z,86.81
2017-07-17T10:11:28.652Z,86.00
2017-07-17T10:13:56.072Z,86.64
2017-07-17T10:16:23.487Z,87.72
2017-07-17T10:18:50.957Z,86.56
2017-07-17T10:21:18.394Z,87.00
2017-07-17T10:23:45.821Z,87.89
2017-07-17T10:26:13.445Z,88.61
2017-07-17T10:28:40.877Z,86.17
2017-07-17T10:31:08.303Z,86.79
2017-07-17T10:33:35.972Z,85.24
2017-07-17T10:36:03.398Z,85.30
2017-07-17T10:38:30.833Z,85.45
2017-07-17T10:40:58.444Z,85.19
2017-07-17T10:43:25.868Z,86.82
2017-07-17T10:45:53.278Z,84.97
2017-07-17T10:48:21.092Z,84.26
2017-07-17T10:50:48.510Z,84.61
2017-07-17T10:53:15.940Z,83.11
2017-07-17T10:55:43.408Z,83.58
2017-07-17T10:58:10.817Z,82.47
2017-07-17T11:00:38.230Z,83.09
2017-07-17T11:03:05.682Z,82.78
2017-07-17T11:05:33.099Z,80.71
2017-07-17T11:08:00.516Z,81.49
2017-07-17T11:10:28.219Z,79.64
2017-07-17T11:12:55.630Z,78.89
2017-07-17T11:15:23.046Z,78.60
2017-07-17T11:17:50.529Z,77.92
2017-07-17T11:20:17.939Z,77.16
2017-07-17T11:22:45.357Z,77.71
2017-07-17T11:25:13.170Z,76.13
2017-07-17T11:27:40.586Z,77.26
2017-07-17T11:30:08.006Z,75.74
2017-07-17T11:32:35.538Z,73.81
2017-07-17T11:35:02.968Z,75.72
2017-07-17T11:37:30.391Z,74.50
2017-07-17T11:39:57.967Z,71.28
2017-07-17T11:42:25.382Z,76.01
2017-07-17T11:44:52.798Z,73.16
2017-07-17T11:59:56.843Z,69.18
2017-07-17T12:02:24.262Z,70.53
2017-07-17T12:07:18.550Z,70.11
2017-07-17T12:09:45.965Z,69.93
2017-07-17T12:12:13.413Z,68.87
2017-07-17T12:14:40.830Z,69.94
2017-07-17T12:17:08.246Z,68.03
2017-07-17T12:19:35.819Z,67.26
2017-07-17T12:22:03.245Z,66.42
2017-07-17T12:24:30.659Z,68.43
2017-07-17T12:26:58.090Z,67.16
2017-07-17T12:29:25.514Z,67.78
2017-07-17T12:31:52.942Z,69.11
2017-07-17T12:34:20.478Z,69.32
2017-07-17T12:36:47.899Z,69.37
2017-07-17T12:39:15.324Z,70.24
2017-07-17T12:41:42.978Z,71.26
2017-07-17T12:44:10.405Z,71.99
2017-07-17T12:46:37.819Z,72.70
2017-07-17T12:49:05.258Z,70.15
2017-07-17T12:51:32.679Z,69.82
2017-07-17T12:54:00.107Z,70.96
2017-07-17T12:56:27.698Z,67.73
2017-07-17T12:58:55.121Z,68.23
2017-07-17T13:01:22.544Z,65.08
2017-07-17T13:03:50.119Z,64.44
2017-07-17T13:06:17.552Z,62.72
2017-07-17T13:08:44.974Z,64.00
2017-07-17T13:11:12.464Z,60.76
2017-07-17T13:13:39.879Z,59.19
2017-07-17T13:16:07.303Z,57.70
2017-07-17T13:18:34.897Z,56.70
2017-07-17T13:21:02.325Z,55.81
2017-07-17T13:23:29.756Z,58.09
2017-07-17T13:25:57.191Z,57.06
2017-07-17T13:28:24.617Z,60.06
2017-07-17T13:30:52.046Z,54.03
2017-07-17T13:33:19.485Z,58.91
2017-07-17T13:35:46.918Z,59.55
2017-07-17T13:38:14.340Z,61.87
2017-07-17T13:40:41.952Z,61.19
2017-07-17T13:43:09.383Z,60.80
2017-07-17T13:45:36.832Z,60.77
2017-07-17T13:48:04.359Z,62.23
2017-07-17T13:50:31.770Z,59.12
2017-07-17T13:53:02.447Z,60.26
2017-07-17T13:55:30.002Z,58.71
2017-07-17T13:57:57.440Z,59.55
2017-07-17T14:00:24.884Z,60.74
2017-07-17T14:02:52.646Z,56.99
2017-07-17T14:05:20.083Z,57.69
2017-07-17T14:07:47.542Z,62.24
2017-07-17T14:10:14.999Z,60.19
2017-07-17T14:12:42.435Z,54.30
2017-07-17T14:15:09.856Z,53.87
2017-07-17T14:17:37.436Z,55.60
2017-07-17T14:20:04.856Z,54.74
2017-07-17T14:22:32.276Z,57.28
2017-07-17T14:24:59.851Z,55.06
2017-07-17T14:27:27.271Z,58.19
2017-07-17T14:29:54.687Z,56.70
2017-07-17T14:32:22.241Z,56.17
2017-07-17T14:34:49.661Z,54.02
2017-07-17T14:37:17.115Z,51.24
2017-07-17T14:39:44.723Z,49.27
2017-07-17T14:42:12.151Z,51.84
2017-07-17T14:44:39.567Z,54.80
2017-07-17T14:47:07.051Z,55.60
2017-07-17T14:49:34.475Z,55.93
2017-07-17T14:52:01.900Z,53.39
2017-07-17T14:54:29.361Z,53.72
2017-07-17T14:56:56.784Z,54.40
2017-07-17T14:59:24.202Z,50.86
2017-07-17T15:01:51.768Z,52.75
2017-07-17T15:04:19.199Z,54.52
2017-07-17T15:06:46.620Z,54.06
2017-07-17T15:09:14.057Z,53.85
2017-07-17T15:11:41.535Z,53.52
2017-07-17T15:14:09.060Z,53.57
2017-07-17T15:16:37.026Z,51.67
2017-07-17T15:19:04.455Z,49.79
2017-07-17T15:21:31.886Z,51.98
2017-07-17T15:23:59.493Z,52.64
2017-07-17T15:26:26.901Z,50.97
2017-07-17T15:28:54.354Z,50.57
2017-07-17T15:31:21.802Z,52.67
2017-07-17T15:33:49.293Z,51.11
2017-07-17T15:36:16.746Z,51.31
2017-07-17T15:38:44.327Z,49.43
2017-07-17T15:41:11.739Z,51.66
2017-07-17T15:43:39.189Z,50.33
2017-07-17T15:46:06.982Z,51.65
2017-07-17T15:48:35.014Z,52.58
2017-07-17T15:51:02.431Z,54.38
2017-07-17T15:53:29.934Z,54.76
2017-07-17T15:55:57.375Z,53.93
2017-07-17T15:58:24.871Z,55.16
2017-07-17T16:00:52.351Z,51.73
2017-07-17T16:03:19.758Z,54.32
2017-07-17T16:05:47.182Z,53.89
2017-07-17T16:08:14.631Z,52.25
2017-07-17T16:10:42.047Z,53.50
2017-07-17T16:13:09.459Z,50.39
2017-07-17T16:15:36.899Z,52.40
2017-07-17T16:18:04.340Z,52.93
2017-07-17T16:20:31.751Z,52.45
2017-07-17T16:22:59.506Z,53.56
2017-07-17T16:25:26.920Z,53.09
2017-07-17T16:27:54.334Z,51.37
2017-07-17T16:30:22.145Z,50.51
2017-07-17T16:32:49.560Z,51.03
2017-07-17T16:35:16.975Z,51.16
2017-07-17T16:37:44.736Z,50.63
2017-07-17T16:40:12.155Z,50.48
2017-07-17T16:42:39.567Z,49.16
2017-07-17T16:45:07.107Z,50.71
2017-07-17T16:47:34.524Z,50.22
2017-07-17T16:50:01.939Z,48.12
2017-07-17T16:52:29.511Z,49.35
2017-07-17T16:54:56.921Z,48.61
2017-07-17T16:57:24.334Z,49.05
2017-07-17T16:59:51.798Z,46.48
2017-07-17T17:02:19.216Z,44.59
2017-07-17T17:04:46.622Z,46.71
2017-07-17T17:07:14.375Z,44.31
2017-07-17T17:09:41.776Z,46.55
2017-07-17T17:12:09.187Z,43.62
2017-07-17T17:14:36.623Z,44.12
2017-07-17T17:17:04.029Z,43.60
2017-07-17T17:19:31.451Z,42.30
2017-07-17T17:21:59.014Z,43.78
2017-07-17T17:24:26.427Z,42.64
2017-07-17T17:26:53.830Z,44.53
2017-07-17T17:29:21.270Z,46.25
2017-07-17T17:31:48.679Z,48.35
2017-07-17T17:34:16.099Z,49.37
2017-07-17T17:36:43.523Z,48.73
2017-07-17T17:39:10.947Z,49.82
2017-07-17T17:41:38.386Z,50.09
2017-07-17T17:44:05.815Z,50.85
2017-07-17T17:46:33.230Z,51.10
2017-07-17T17:49:00.648Z,51.61
2017-07-17T17:51:28.346Z,52.50
2017-07-17T17:53:55.763Z,49.50
2017-07-17T17:56:23.179Z,48.83
2017-07-17T17:58:50.706Z,50.21
2017-07-17T18:01:18.127Z,50.30
2017-07-17T18:03:45.541Z,50.03
2017-07-17T18:06:12.994Z,49.79
2017-07-17T18:08:40.430Z,49.60
2017-07-17T18:11:07.876Z,51.07
2017-07-17T18:13:35.314Z,51.42
2017-07-17T18:16:02.779Z,51.96
2017-07-17T18:18:30.183Z,52.47
2017-07-17T18:20:57.625Z,55.82
2017-07-17T18:23:25.033Z,57.87
2017-07-17T18:25:52.447Z,56.61
2017-07-17T18:28:19.923Z,59.76
2017-07-17T18:30:47.335Z,59.91
2017-07-17T18:33:14.746Z,57.32
2017-07-17T18:35:42.311Z,58.61
2017-07-17T18:38:09.723Z,55.77
2017-07-17T18:40:37.159Z,52.79
2017-07-17T18:43:04.727Z,50.52
2017-07-17T18:45:32.138Z,50.12
2017-07-17T18:47:59.555Z,49.98
2017-07-17T18:50:27.047Z,50.82
2017-07-17T18:52:54.454Z,51.85
2017-07-17T18:55:21.858Z,51.56
2017-07-17T18:57:49.426Z,52.11
2017-07-17T19:00:16.827Z,52.29
2017-07-17T19:02:44.234Z,52.71
2017-07-17T19:05:11.667Z,52.59
2017-07-17T19:07:39.088Z,53.52
2017-07-17T19:10:06.495Z,54.01
2017-07-17T19:12:34.167Z,55.89
2017-07-17T19:15:01.587Z,56.82
2017-07-17T19:17:29.015Z,54.43
2017-07-17T19:19:56.467Z,54.96
2017-07-17T19:22:23.899Z,55.26
2017-07-17T19:24:52.190Z,55.84
2017-07-17T19:27:19.743Z,55.04
2017-07-17T19:29:47.179Z,55.90
2017-07-17T19:32:14.592Z,56.51
2017-07-17T19:34:42.175Z,55.41
2017-07-17T19:37:09.587Z,56.11
2017-07-17T19:39:37.044Z,58.58
2017-07-17T19:42:04.783Z,59.34
2017-07-17T19:44:32.193Z,59.49
2017-07-17T19:46:59.614Z,60.02
2017-07-17T19:49:27.080Z,60.67
2017-07-17T19:51:54.487Z,60.86
2017-07-17T19:54:21.940Z,61.83
2017-07-17T19:56:49.423Z,61.78
2017-07-17T19:59:16.846Z,61.69
2017-07-17T20:01:44.292Z,63.98
2017-07-17T20:04:11.889Z,65.61
2017-07-17T20:06:39.296Z,64.71
2017-07-17T20:09:07.667Z,63.03
2017-07-17T20:11:35.313Z,64.56
2017-07-17T20:14:02.715Z,61.91
2017-07-17T20:16:30.161Z,64.34
2017-07-17T20:18:57.697Z,66.25
2017-07-17T20:21:25.131Z,63.65
2017-07-17T20:23:52.554Z,63.15
2017-07-17T20:26:20.040Z,62.72
2017-07-17T20:28:47.488Z,63.51
2017-07-17T20:31:14.910Z,63.89
2017-07-17T20:33:42.500Z,64.01
2017-07-17T20:36:09.906Z,64.57
2017-07-17T20:38:37.323Z,64.75
2017-07-17T20:41:04.906Z,64.91
2017-07-17T20:43:32.323Z,65.57
2017-07-17T20:45:59.734Z,65.08
2017-07-17T20:48:27.256Z,66.28
2017-07-17T20:50:54.667Z,66.09
2017-07-17T20:53:22.073Z,65.46
2017-07-17T20:55:49.538Z,66.33
2017-07-17T20:58:16.948Z,67.14
2017-07-17T21:00:44.346Z,65.82
2017-07-17T21:03:11.810Z,67.73
2017-07-17T21:05:39.272Z,68.23
2017-07-17T21:08:06.692Z,66.59
2017-07-17T21:10:34.266Z,65.79
2017-07-17T21:13:01.688Z,67.36
2017-07-17T21:15:29.116Z,67.52
2017-07-17T21:17:56.727Z,67.72
2017-07-17T21:20:24.140Z,67.37
2017-07-17T21:22:51.564Z,64.35
2017-07-17T21:25:19.113Z,65.24
2017-07-17T21:27:46.526Z,64.86
2017-07-17T21:30:13.946Z,63.46
2017-07-17T21:32:41.468Z,63.98
2017-07-17T21:35:08.894Z,64.30
2017-07-17T21:37:36.323Z,64.91
2017-07-17T21:40:03.843Z,65.49
2017-07-17T21:42:31.260Z,66.54
2017-07-17T21:44:58.670Z,64.64
2017-07-17T21:47:26.310Z,63.93
2017-07-17T21:49:53.717Z,63.10
2017-07-17T21:52:21.135Z,62.53
2017-07-17T21:54:48.594Z,63.53
2017-07-17T21:57:16.011Z,63.75
2017-07-17T21:59:43.425Z,64.98
2017-07-17T22:02:11.054Z,65.33
2017-07-17T22:04:38.479Z,65.12
2017-07-17T22:07:05.907Z,65.40
2017-07-17T22:09:33.593Z,66.17
2017-07-17T22:12:01.012Z,65.77
2017-07-17T22:14:28.428Z,66.01
2017-07-17T22:16:55.866Z,64.83
2017-07-17T22:19:23.294Z,66.15
2017-07-17T22:21:50.705Z,65.27
2017-07-17T22:24:18.587Z,65.62
2017-07-17T22:26:46.022Z,64.65
2017-07-17T22:29:13.429Z,65.12
2017-07-17T22:31:40.962Z,65.19
2017-07-17T22:34:08.374Z,65.09
2017-07-17T22:36:35.797Z,64.86
2017-07-17T22:39:03.372Z,64.44
2017-07-17T22:41:30.782Z,64.84
2017-07-17T22:43:58.194Z,64.08
2017-07-17T22:46:25.772Z,64.31
2017-07-17T22:48:53.178Z,64.21
2017-07-17T22:51:20.601Z,64.77
2017-07-17T22:53:48.043Z,64.70
2017-07-17T22:56:15.488Z,64.78
2017-07-17T22:58:42.906Z,65.59
2017-07-17T23:01:10.394Z,64.95
2017-07-17T23:03:37.816Z,65.82
2017-07-17T23:06:05.227Z,65.52
2017-07-17T23:08:33.018Z,65.71
2017-07-17T23:11:00.422Z,65.59
2017-07-17T23:13:27.834Z,65.90
2017-07-17T23:15:55.274Z,65.81
2017-07-17T23:18:22.706Z,65.62
2017-07-17T23:20:51.498Z,65.53
2017-07-17T23:23:19.253Z,65.87
2017-07-17T23:25:46.674Z,65.64
2017-07-17T23:28:14.092Z,66.21
2017-07-17T23:30:41.532Z,66.39
2017-07-17T23:33:08.951Z,66.46
2017-07-17T23:35:36.363Z,66.86
2017-07-17T23:38:04.139Z,66.99
2017-07-17T23:40:31.571Z,65.75
2017-07-17T23:42:58.978Z,66.49
2017-07-17T23:45:26.410Z,66.51
2017-07-17T23:47:53.843Z,65.74
2017-07-17T23:50:21.304Z,65.85
2017-07-17T23:52:48.753Z,66.11
2017-07-17T23:55:16.166Z,66.05
2017-07-17T23:57:43.581Z,66.66
